Randy Martin — WDB2136 — position and weather

sailwx.info

Track history (hours):
 
Tides and Currents Weather Stations Pressure Air Temp Water Temp Dewpoint Dewpoint Depression Visibility Wind Speed Wind Dir Waves Ship Positions

Randy Martin

Owner: BLESSEY ENTERPRISES INC, HARAHAN, LA. More information available from US FCC via Universal Licensing System.

Last reported at 2018-Feb-20 01:00 UTC. Time now 2018-Feb-21 05:41 UTC.
Position N 29°45' W 095°06'.

Length 25 m.

MMSI: 365824084.

Date/timePositionNaut miles runAvg speedWind from/ knotsBaromVisibWave heightAir tempDewpointWater temp
2018-Feb-20 01:00N 29°45' W 095°06'2 0.2
2018-Feb-19 15:32N 29°47' W 095°05'0 0.0
2018-Feb-19 15:30N 29°47' W 095°05'0 0.0
2018-Feb-19 15:00N 29°47' W 095°05'0 0.1
2018-Feb-19 13:30N 29°47' W 095°05'0 0.2
2018-Feb-19 13:00N 29°47' W 095°05'0 0.0
2018-Feb-19 12:18N 29°47' W 095°05'0 0.0
2018-Feb-19 11:58N 29°47' W 095°05'0 0.0
2018-Feb-19 11:27N 29°47' W 095°05'0 0.0
2018-Feb-19 10:57N 29°47' W 095°05'0 0.0
2018-Feb-19 10:27N 29°47' W 095°05'0 0.0
2018-Feb-19 09:59N 29°47' W 095°05'0 0.0
2018-Feb-19 09:30N 29°47' W 095°05'0 0.0
2018-Feb-19 08:59N 29°47' W 095°05'0 0.2
2018-Feb-19 08:21N 29°47' W 095°05'0 0.0
2018-Feb-19 08:00N 29°47' W 095°05'0 0.0
2018-Feb-19 07:26N 29°47' W 095°05'0 0.3
2018-Feb-19 06:58N 29°47' W 095°05'0 0.0
2018-Feb-19 06:30N 29°47' W 095°05'0 0.0
2018-Feb-19 05:59N 29°47' W 095°05'0 0.0
2018-Feb-19 05:30N 29°47' W 095°05'0 0.0
2018-Feb-19 04:59N 29°47' W 095°05'0 0.0
2018-Feb-19 04:30N 29°47' W 095°05'0 0.0
2018-Feb-18 00:35N 29°47' W 095°05'0 0.0
2018-Feb-18 00:30N 29°47' W 095°05'0 0.0
2018-Feb-18 00:00N 29°47' W 095°05'0 0.0
2018-Feb-17 23:21N 29°47' W 095°05'0 0.0
2018-Feb-17 22:59N 29°47' W 095°05'5 0.3
2018-Feb-17 04:11N 29°45' W 095°10'5 1.9
2018-Feb-17 01:26N 29°47' W 095°05'3 0.1
2018-Feb-16 07:57N 29°45' W 095°06'4 4.2
2018-Feb-16 06:56N 29°42' W 095°02'1 0.4
2018-Feb-16 04:59N 29°43' W 095°03'1 2.8
2018-Feb-16 04:30N 29°43' W 095°01'3 6.3
2018-Feb-16 03:59N 29°45' W 095°04'2 4.5
2018-Feb-16 03:26N 29°47' W 095°05'0 0.1
2018-Feb-16 02:59N 29°47' W 095°05'0 0.0
2018-Feb-16 02:30N 29°47' W 095°05'0 0.0
2018-Feb-16 02:00N 29°47' W 095°05'0 0.0
2018-Feb-16 01:29N 29°47' W 095°05'0 0.0
2018-Feb-15 23:37N 29°47' W 095°05'0 0.0
2018-Feb-15 19:36N 29°47' W 095°05'1 0.1
2018-Feb-15 10:14N 29°47' W 095°05'0 0.0
2018-Feb-15 07:54N 29°47' W 095°05'0 0.0
2018-Feb-15 07:26N 29°47' W 095°05'0 0.0
2018-Feb-15 06:57N 29°47' W 095°05'0 0.0
2018-Feb-15 06:07N 29°47' W 095°05'0 0.0
2018-Feb-15 05:57N 29°47' W 095°05'0 0.0
2018-Feb-15 04:55N 29°47' W 095°05'0 0.0
2018-Feb-15 04:27N 29°47' W 095°05'0 0.0
2018-Feb-15 00:59N 29°47' W 095°05'0 0.0
2018-Feb-14 23:34N 29°47' W 095°05'  
2018-Feb-10 09:27N 29°47' W 095°05'  
Track history (hours):
 
Tides and Currents Weather Stations Pressure Air Temp Water Temp Dewpoint Dewpoint Depression Visibility Wind Speed Wind Dir Waves Ship Positions

Randy Martin

Owner: BLESSEY ENTERPRISES INC, HARAHAN, LA. More information available from US FCC via Universal Licensing System.

Last reported at 2018-Feb-20 01:00 UTC. Time now 2018-Feb-21 05:41 UTC.
Position N 29°45' W 095°06'.

Length 25 m.

MMSI: 365824084.

Date/timePositionNaut miles runAvg speedWind from/ knotsBaromVisibWave heightAir tempDewpointWater temp
2018-Feb-20 01:00N 29°45' W 095°06'2 0.2
2018-Feb-19 15:32N 29°47' W 095°05'0 0.0
2018-Feb-19 15:30N 29°47' W 095°05'0 0.0
2018-Feb-19 15:00N 29°47' W 095°05'0 0.1
2018-Feb-19 13:30N 29°47' W 095°05'0 0.2
2018-Feb-19 13:00N 29°47' W 095°05'0 0.0
2018-Feb-19 12:18N 29°47' W 095°05'0 0.0
2018-Feb-19 11:58N 29°47' W 095°05'0 0.0
2018-Feb-19 11:27N 29°47' W 095°05'0 0.0
2018-Feb-19 10:57N 29°47' W 095°05'0 0.0
2018-Feb-19 10:27N 29°47' W 095°05'0 0.0
2018-Feb-19 09:59N 29°47' W 095°05'0 0.0
2018-Feb-19 09:30N 29°47' W 095°05'0 0.0
2018-Feb-19 08:59N 29°47' W 095°05'0 0.2
2018-Feb-19 08:21N 29°47' W 095°05'0 0.0
2018-Feb-19 08:00N 29°47' W 095°05'0 0.0
2018-Feb-19 07:26N 29°47' W 095°05'0 0.3
2018-Feb-19 06:58N 29°47' W 095°05'0 0.0
2018-Feb-19 06:30N 29°47' W 095°05'0 0.0
2018-Feb-19 05:59N 29°47' W 095°05'0 0.0
2018-Feb-19 05:30N 29°47' W 095°05'0 0.0
2018-Feb-19 04:59N 29°47' W 095°05'0 0.0
2018-Feb-19 04:30N 29°47' W 095°05'0 0.0
2018-Feb-18 00:35N 29°47' W 095°05'0 0.0
2018-Feb-18 00:30N 29°47' W 095°05'0 0.0
2018-Feb-18 00:00N 29°47' W 095°05'0 0.0
2018-Feb-17 23:21N 29°47' W 095°05'0 0.0
2018-Feb-17 22:59N 29°47' W 095°05'5 0.3
2018-Feb-17 04:11N 29°45' W 095°10'5 1.9
2018-Feb-17 01:26N 29°47' W 095°05'3 0.1
2018-Feb-16 07:57N 29°45' W 095°06'4 4.2
2018-Feb-16 06:56N 29°42' W 095°02'1 0.4
2018-Feb-16 04:59N 29°43' W 095°03'1 2.8
2018-Feb-16 04:30N 29°43' W 095°01'3 6.3
2018-Feb-16 03:59N 29°45' W 095°04'2 4.5
2018-Feb-16 03:26N 29°47' W 095°05'0 0.1
2018-Feb-16 02:59N 29°47' W 095°05'0 0.0
2018-Feb-16 02:30N 29°47' W 095°05'0 0.0
2018-Feb-16 02:00N 29°47' W 095°05'0 0.0
2018-Feb-16 01:29N 29°47' W 095°05'0 0.0
2018-Feb-15 23:37N 29°47' W 095°05'0 0.0
2018-Feb-15 19:36N 29°47' W 095°05'1 0.1
2018-Feb-15 10:14N 29°47' W 095°05'0 0.0
2018-Feb-15 07:54N 29°47' W 095°05'0 0.0
2018-Feb-15 07:26N 29°47' W 095°05'0 0.0
2018-Feb-15 06:57N 29°47' W 095°05'0 0.0
2018-Feb-15 06:07N 29°47' W 095°05'0 0.0
2018-Feb-15 05:57N 29°47' W 095°05'0 0.0
2018-Feb-15 04:55N 29°47' W 095°05'0 0.0
2018-Feb-15 04:27N 29°47' W 095°05'0 0.0
2018-Feb-15 00:59N 29°47' W 095°05'0 0.0
2018-Feb-14 23:34N 29°47' W 095°05'  
2018-Feb-10 09:27N 29°47' W 095°05'  

Dump ship's entire track history